Aviation Digital Data Service (ADDS)

Output produced by METARs form (0916 UTC 29 March 2017)
found at http://aviationweather.gov/adds/metars/
 
KVQQ 290534Z 2906/3006 25003KT P6SM SKC 
     FM290900 00000KT 4SM BR SKC 
     FM291300 27005KT P6SM SCT050 
     FM292300 14005KT P6SM FEW050